This is the latest recevied weather packets stored in our database for station/object KD5VOO. If no packets are shown the sender has not sent any weather packets the latest 1 day(s).
| Time | Temp. | Humidity | Pressure | Rain* | Wind** | Luminosity | Snow |
|---|---|---|---|---|---|---|---|
| 1777998190 | 25.56° C | 54% | 1009.9 hPa | 0 mm | 0.89 m/s, 186° | 106 W/m² | - |
| 1777997887 | 25.56° C | 54% | 1009.9 hPa | 0 mm | 3.13 m/s, 174° | 104 W/m² | - |
| 1777997584 | 25.56° C | 54% | 1010.2 hPa | 0 mm | 2.68 m/s, 179° | 97 W/m² | - |
| 1777997281 | 25.56° C | 55% | 1009.9 hPa | 0 mm | 0.45 m/s, 210° | 95 W/m² | - |
| 1777996979 | 25.56° C | 55% | 1009.9 hPa | 0 mm | 2.68 m/s, 245° | 64 W/m² | - |
| 1777996675 | 25° C | 55% | 1010.2 hPa | 0 mm | 0.89 m/s, 158° | 136 W/m² | - |
| 1777996371 | 25° C | 56% | 1010.2 hPa | 0 mm | 0 m/s | 98 W/m² | - |
| 1777996068 | 25° C | 56% | 1009.9 hPa | 0 mm | 1.79 m/s, 199° | 108 W/m² | - |
| 1777995765 | 25° C | 56% | 1009.9 hPa | 0 mm | 2.68 m/s, 208° | 97 W/m² | - |
| 1777995461 | 25° C | 55% | 1009.9 hPa | 0 mm | 5.81 m/s, 218° | 94 W/m² | - |
| 1777995158 | 25° C | 56% | 1010.2 hPa | 0 mm | 0 m/s | 105 W/m² | - |
| 1777994855 | 24.44° C | 55% | 1009.9 hPa | 0 mm | 0.89 m/s, 272° | 97 W/m² | - |
| 1777994552 | 24.44° C | 55% | 1009.9 hPa | 0 mm | 2.68 m/s, 229° | 94 W/m² | - |
| 1777994246 | 24.44° C | 56% | 1009.9 hPa | 0 mm | 4.92 m/s, 227° | 121 W/m² | - |
| 1777993944 | 24.44° C | 56% | 1010.2 hPa | 0 mm | 2.68 m/s, 223° | 77 W/m² | - |
| 1777993640 | 24.44° C | 56% | 1009.9 hPa | 0 mm | 2.68 m/s, 194° | 116 W/m² | - |
| 1777993338 | 24.44° C | 57% | 1009.9 hPa | 0 mm | 0.89 m/s, 200° | 49 W/m² | - |
| 1777993046 | 24.44° C | 57% | 1009.9 hPa | 0 mm | 2.68 m/s, 231° | 99 W/m² | - |
| 1777992737 | 24.44° C | 57% | 1009.9 hPa | 0 mm | 0 m/s | 152 W/m² | - |
| 1777992434 | 24.44° C | 57% | 1009.9 hPa | 0 mm | 0.89 m/s, 161° | 92 W/m² | - |
| 1777992132 | 23.89° C | 57% | 1009.9 hPa | 0 mm | 1.34 m/s, 175° | 78 W/m² | - |
| 1777991829 | 23.89° C | 57% | 1009.9 hPa | 0 mm | 2.24 m/s, 199° | 69 W/m² | - |
| 1777991526 | 23.89° C | 57% | 1009.9 hPa | 0 mm | 1.79 m/s, 167° | 126 W/m² | - |
| 1777991223 | 23.89° C | 57% | 1009.9 hPa | 0 mm | 0 m/s | 125 W/m² | - |
| 1777990920 | 23.33° C | 57% | 1009.9 hPa | 0 mm | 1.34 m/s, 218° | 46 W/m² | - |
* Rain latest hour (hover to see other rain measurements)
** Current wind speed in m/s (hover to see current wind gust speed)